Time;durP1;ratioP1;P1;durP2;ratioP2;P2;SDS_P1;SDS_P2;PMS_P1;PMS_P2;Temp;Humidity;BMP_temperature;BMP_pressure;BME280_temperature;BME280_humidity;BME280_pressure;Samples;Min_cycle;Max_cycle;Signal;HPM_P1;HPM_P2
2022/06/08 00:00:57;;;;;;;9.90;8.05;;;17.00;75.30;;;;;;5048776;28;20561;-70
2022/06/08 00:03:31;;;;;;;8.23;7.10;;;16.90;75.50;;;;;;5047815;28;20401;-70
2022/06/08 00:05:57;;;;;;;9.05;7.45;;;16.90;75.70;;;;;;5048443;28;20425;-70
2022/06/08 00:08:22;;;;;;;8.45;7.43;;;16.90;75.70;;;;;;5049009;28;20032;-70
2022/06/08 00:10:48;;;;;;;8.43;6.72;;;16.90;75.60;;;;;;5045398;28;20031;-71
2022/06/08 00:13:14;;;;;;;11.15;8.35;;;16.90;75.50;;;;;;5047876;28;20087;-71
2022/06/08 00:15:41;;;;;;;10.45;8.65;;;16.90;75.60;;;;;;5050980;28;20025;-71
2022/06/08 00:18:06;;;;;;;10.00;7.80;;;16.80;75.80;;;;;;5048948;28;20070;-72
2022/06/08 00:20:33;;;;;;;8.18;6.50;;;16.80;76.00;;;;;;5047764;28;20037;-72
2022/06/08 00:22:58;;;;;;;10.23;6.50;;;16.80;76.00;;;;;;5049762;28;20020;-72
2022/06/08 00:25:24;;;;;;;8.75;6.40;;;16.80;76.00;;;;;;5047755;28;20082;-71
2022/06/08 00:27:50;;;;;;;7.40;6.07;;;16.80;75.80;;;;;;5046464;28;20099;-72
2022/06/08 00:30:15;;;;;;;7.72;6.05;;;16.90;75.70;;;;;;5047344;28;20440;-71
2022/06/08 00:32:41;;;;;;;8.65;6.68;;;16.90;75.60;;;;;;5046030;28;20151;-70
2022/06/08 00:35:07;;;;;;;7.25;5.95;;;16.90;75.60;;;;;;5050562;28;20059;-70
2022/06/08 00:37:32;;;;;;;7.82;5.60;;;16.90;75.40;;;;;;5048514;28;20090;-70
2022/06/08 00:39:58;;;;;;;8.50;6.75;;;16.90;75.50;;;;;;5047586;28;20052;-69
2022/06/08 00:42:25;;;;;;;10.80;8.23;;;16.90;75.60;;;;;;5047935;28;20025;-69
2022/06/08 00:45:18;;;;;;;8.10;7.28;;;16.90;75.80;;;;;;5049069;28;20425;-69
2022/06/08 00:47:53;;;;;;;8.60;7.40;;;16.80;76.10;;;;;;5048225;28;20033;-70
2022/06/08 00:50:26;;;;;;;8.18;6.72;;;16.80;76.10;;;;;;5048384;28;20017;-70
2022/06/08 00:52:53;;;;;;;8.43;6.82;;;16.80;76.10;;;;;;5048804;28;20037;-72
2022/06/08 00:55:22;;;;;;;7.82;6.25;;;16.80;76.10;;;;;;5052359;28;20025;-72
2022/06/08 00:58:01;;;;;;;11.35;8.55;;;16.80;76.00;;;;;;5050661;28;20135;-72
2022/06/08 01:00:34;;;;;;;8.60;7.10;;;16.80;76.20;;;;;;5056055;28;20021;-73
2022/06/08 01:03:00;;;;;;;7.47;5.97;;;16.80;76.30;;;;;;5048902;28;20431;-73
2022/06/08 01:05:28;;;;;;;9.02;7.20;;;16.90;76.20;;;;;;5046224;28;20055;-72
2022/06/08 01:07:57;;;;;;;9.85;7.75;;;16.90;76.10;;;;;;5050173;28;20068;-72
2022/06/08 01:10:29;;;;;;;9.18;7.45;;;16.90;76.40;;;;;;5049781;28;20057;-69
2022/06/08 01:12:57;;;;;;;7.68;6.75;;;16.90;76.60;;;;;;5046917;28;20111;-68
2022/06/08 01:15:27;;;;;;;8.18;6.78;;;16.90;76.60;;;;;;5047627;28;20112;-68
2022/06/08 01:17:52;;;;;;;9.02;7.25;;;16.90;76.50;;;;;;5048833;28;20037;-68
2022/06/08 01:20:18;;;;;;;10.07;8.52;;;16.90;76.80;;;;;;5047011;28;20025;-69
2022/06/08 01:22:43;;;;;;;8.65;7.22;;;16.90;77.60;;;;;;5048520;28;20076;-69
2022/06/08 01:25:12;;;;;;;8.30;6.75;;;16.90;77.00;;;;;;5052346;28;20020;-70
2022/06/08 01:28:08;;;;;;;8.02;7.20;;;16.90;77.00;;;;;;5049818;28;20013;-69
2022/06/08 01:30:48;;;;;;;8.18;6.80;;;17.00;77.00;;;;;;5053332;28;20025;-69
2022/06/08 01:33:35;;;;;;;9.18;7.40;;;17.00;76.80;;;;;;5049539;28;20017;-69
2022/06/08 01:36:07;;;;;;;11.15;8.23;;;17.00;76.80;;;;;;5050373;28;20021;-69
2022/06/08 01:39:03;;;;;;;8.20;6.82;;;17.00;77.00;;;;;;5047899;28;20094;-69
2022/06/08 01:41:48;;;;;;;8.32;6.45;;;17.00;77.10;;;;;;5055299;28;20020;-70
2022/06/08 01:44:34;;;;;;;8.13;6.40;;;17.00;76.80;;;;;;5031615;28;20431;-70
2022/06/08 01:47:31;;;;;;;7.20;5.65;;;17.10;76.80;;;;;;5048035;28;20021;-69
2022/06/08 01:50:06;;;;;;;7.63;6.40;;;17.20;76.70;;;;;;5052284;28;20093;-69
2022/06/08 01:52:55;;;;;;;7.95;6.20;;;17.20;76.60;;;;;;5050650;28;20025;-70
2022/06/08 01:55:44;;;;;;;9.20;7.47;;;17.20;76.80;;;;;;5081179;28;20025;-69
2022/06/08 01:58:24;;;;;;;9.05;7.07;;;17.20;76.90;;;;;;5046164;28;20033;-70
2022/06/08 02:01:02;;;;;;;9.82;7.90;;;17.10;77.00;;;;;;5053603;28;20029;-70
2022/06/08 02:03:50;;;;;;;8.73;6.93;;;17.10;77.10;;;;;;5047373;28;20394;-70
2022/06/08 02:06:31;;;;;;;10.02;8.20;;;17.10;77.10;;;;;;5046094;28;20548;-70
2022/06/08 02:09:03;;;;;;;7.68;6.38;;;17.10;77.30;;;;;;5049224;28;20078;-70
2022/06/08 02:11:44;;;;;;;9.98;7.65;;;17.10;77.30;;;;;;5057886;28;20020;-69
2022/06/08 02:14:23;;;;;;;10.23;7.70;;;17.10;77.30;;;;;;5078159;28;20025;-70
2022/06/08 02:16:57;;;;;;;9.75;7.75;;;17.10;77.40;;;;;;5057261;28;20036;-70
2022/06/08 02:19:37;;;;;;;8.55;7.28;;;17.00;77.60;;;;;;5051539;28;20044;-69
2022/06/08 02:22:34;;;;;;;8.88;7.22;;;17.00;77.70;;;;;;5055145;28;20028;-69
2022/06/08 02:25:16;;;;;;;8.52;6.55;;;17.10;77.70;;;;;;5053611;28;20475;-69
2022/06/08 02:27:45;;;;;;;;;;;17.10;77.50;;;;;;5051231;28;20021;-70
2022/06/08 02:30:16;;;;;;;7.88;6.78;;;17.10;77.20;;;;;;5051608;28;19931;-69
2022/06/08 02:35:39;;;;;;;9.45;7.57;;;17.20;77.40;;;;;;5048731;28;20047;-70
2022/06/08 02:38:09;;;;;;;9.48;8.13;;;17.10;77.60;;;;;;5048871;28;20033;-71
2022/06/08 02:40:37;;;;;;;12.38;9.65;;;17.00;77.70;;;;;;5053090;28;20083;-69
2022/06/08 02:43:11;;;;;;;10.65;8.00;;;17.00;78.10;;;;;;5066780;28;20081;-69
2022/06/08 02:45:41;;;;;;;9.80;8.07;;;17.00;78.10;;;;;;5067167;28;20051;-70
2022/06/08 02:48:10;;;;;;;11.85;8.88;;;17.00;78.10;;;;;;5048561;28;20411;-69
2022/06/08 02:50:38;;;;;;;11.90;10.35;;;17.00;78.20;;;;;;5055473;28;20021;-69
2022/06/08 02:53:09;;;;;;;11.55;8.75;;;16.90;78.30;;;;;;5057331;28;20058;-68
2022/06/08 02:55:47;;;;;;;11.43;9.27;;;16.80;78.50;;;;;;5049767;28;20036;-67
2022/06/08 02:58:19;;;;;;;9.45;7.57;;;16.80;78.60;;;;;;5047464;28;20028;-70
2022/06/08 03:00:48;;;;;;;;;;;16.80;78.60;;;;;;5049674;28;20021;-71
2022/06/08 03:03:38;;;;;;;8.82;7.07;;;16.80;78.30;;;;;;5054093;28;20394;-69
2022/06/08 03:06:08;;;;;;;12.05;9.68;;;16.80;78.50;;;;;;5056222;28;20108;-70
2022/06/08 03:08:51;;;;;;;11.35;9.00;;;16.70;78.60;;;;;;5049973;28;20036;-69
2022/06/08 03:11:17;;;;;;;10.25;8.23;;;16.70;78.70;;;;;;5052102;28;20021;-70
2022/06/08 03:13:54;;;;;;;9.75;7.68;;;16.70;78.60;;;;;;5050853;28;20021;-69
2022/06/08 03:16:41;;;;;;;9.73;7.78;;;16.70;78.60;;;;;;5049575;28;20025;-68
2022/06/08 03:19:08;;;;;;;10.05;8.15;;;16.70;78.50;;;;;;5049725;28;20074;-69
2022/06/08 03:21:34;;;;;;;9.02;7.78;;;16.70;78.60;;;;;;5066434;28;20025;-69
2022/06/08 03:24:00;;;;;;;9.85;7.93;;;16.70;78.60;;;;;;5048744;28;20025;-69
2022/06/08 03:26:27;;;;;;;9.20;7.75;;;16.70;78.50;;;;;;5050122;28;20024;-70
2022/06/08 03:28:53;;;;;;;12.48;9.70;;;16.70;78.50;;;;;;5042348;28;20025;-70
2022/06/08 03:31:19;;;;;;;11.70;9.10;;;16.70;78.50;;;;;;5050501;28;20146;-70
2022/06/08 03:33:45;;;;;;;12.55;10.07;;;16.60;78.70;;;;;;5050308;28;20104;-69
2022/06/08 03:36:12;;;;;;;10.75;8.43;;;16.60;78.80;;;;;;5051649;28;20040;-70
2022/06/08 03:38:37;;;;;;;11.38;9.20;;;16.60;78.90;;;;;;5048846;28;20029;-70
2022/06/08 03:41:03;;;;;;;11.05;8.27;;;16.60;78.90;;;;;;5050541;28;20039;-70
2022/06/08 03:43:28;;;;;;;10.20;8.73;;;16.60;78.80;;;;;;5050698;28;20033;-70
2022/06/08 03:45:58;;;;;;;9.48;7.75;;;16.70;78.80;;;;;;5050347;28;20091;-70
2022/06/08 03:48:26;;;;;;;10.30;8.25;;;16.70;78.70;;;;;;5048990;28;20498;-70
2022/06/08 03:50:55;;;;;;;10.40;8.05;;;16.70;78.60;;;;;;5050363;28;20588;-70
2022/06/08 03:53:34;;;;;;;10.05;7.40;;;16.80;78.60;;;;;;5050354;28;20429;-70
2022/06/08 03:56:02;;;;;;;9.43;7.35;;;16.80;78.50;;;;;;5045957;28;20642;-68
2022/06/08 03:58:27;;;;;;;11.60;9.50;;;16.80;78.40;;;;;;5050610;28;20041;-68
2022/06/08 04:00:54;;;;;;;9.27;7.43;;;16.90;78.50;;;;;;5054185;28;20059;-69
2022/06/08 04:03:20;;;;;;;12.43;9.18;;;16.90;78.40;;;;;;5059790;28;20067;-70
2022/06/08 04:05:46;;;;;;;11.48;8.85;;;16.90;78.50;;;;;;5051160;28;20490;-68
2022/06/08 04:08:11;;;;;;;10.15;8.23;;;16.90;78.50;;;;;;5051106;28;20017;-68
2022/06/08 04:10:37;;;;;;;10.70;8.80;;;16.90;78.40;;;;;;5051687;28;20522;-68
2022/06/08 04:13:03;;;;;;;13.45;10.60;;;17.00;78.30;;;;;;5050107;28;20025;-68
2022/06/08 04:15:43;;;;;;;15.52;12.10;;;17.00;78.50;;;;;;5050178;28;20017;-69
2022/06/08 04:18:11;;;;;;;11.43;10.00;;;16.90;78.70;;;;;;5050191;28;20044;-68
2022/06/08 04:20:37;;;;;;;14.30;11.50;;;16.90;78.80;;;;;;5050590;28;20021;-69
2022/06/08 04:23:04;;;;;;;13.75;10.20;;;16.80;78.90;;;;;;5052291;28;20028;-69
2022/06/08 04:25:30;;;;;;;12.38;10.23;;;16.80;79.10;;;;;;5052559;28;20025;-69
2022/06/08 04:27:57;;;;;;;11.55;9.65;;;16.80;79.10;;;;;;5049628;28;20387;-69
2022/06/08 04:30:23;;;;;;;11.88;9.18;;;16.80;79.10;;;;;;5053472;28;20047;-69
2022/06/08 04:32:48;;;;;;;12.00;10.32;;;16.90;79.00;;;;;;5048485;28;20387;-68
2022/06/08 04:35:15;;;;;;;14.05;11.45;;;16.80;79.00;;;;;;5048110;28;20025;-68
2022/06/08 04:37:40;;;;;;;12.32;10.20;;;16.80;79.20;;;;;;5049008;28;20017;-68
2022/06/08 04:40:09;;;;;;;10.25;8.27;;;16.80;79.30;;;;;;5045315;28;20040;-68
2022/06/08 04:42:35;;;;;;;13.25;10.85;;;16.90;79.10;;;;;;5049646;28;20506;-68
2022/06/08 04:45:01;;;;;;;12.50;10.32;;;16.90;79.30;;;;;;5048635;28;20026;-68
2022/06/08 04:47:27;;;;;;;12.85;10.73;;;16.90;79.20;;;;;;5053112;28;20023;-68
2022/06/08 04:49:53;;;;;;;12.93;10.20;;;16.90;79.20;;;;;;5049408;28;20108;-69
2022/06/08 04:52:18;;;;;;;12.30;10.80;;;17.00;79.20;;;;;;5048461;28;20056;-69
2022/06/08 04:54:44;;;;;;;12.27;10.93;;;17.20;79.00;;;;;;5048912;28;20099;-69
2022/06/08 04:57:11;;;;;;;15.98;13.77;;;17.60;78.50;;;;;;5043539;28;20032;-69
2022/06/08 04:59:37;;;;;;;15.20;12.23;;;17.80;78.10;;;;;;5047593;28;20079;-68
2022/06/08 05:02:03;;;;;;;12.90;11.10;;;18.20;77.20;;;;;;5048994;28;20037;-69
2022/06/08 05:04:29;;;;;;;16.33;13.55;;;18.50;76.30;;;;;;5048302;28;20033;-69
2022/06/08 05:06:54;;;;;;;12.70;10.90;;;18.60;75.50;;;;;;5042947;28;20052;-69
2022/06/08 05:09:20;;;;;;;12.85;11.48;;;18.60;75.40;;;;;;5046766;28;20554;-68
2022/06/08 05:11:45;;;;;;;10.65;9.32;;;18.50;75.50;;;;;;5047432;28;20056;-69
2022/06/08 05:14:11;;;;;;;11.65;10.45;;;18.40;75.80;;;;;;5050997;28;20027;-70
2022/06/08 05:16:37;;;;;;;13.85;12.35;;;18.30;76.00;;;;;;5055159;28;20053;-70
2022/06/08 05:19:02;;;;;;;8.82;7.60;;;18.30;76.10;;;;;;5053049;28;20048;-70
2022/06/08 05:21:28;;;;;;;9.98;8.93;;;18.40;76.10;;;;;;5052846;28;20027;-70
2022/06/08 05:23:53;;;;;;;11.88;10.07;;;18.70;75.70;;;;;;5051928;28;20112;-70
2022/06/08 05:26:19;;;;;;;14.45;12.00;;;19.10;74.80;;;;;;5054911;28;20586;-70
2022/06/08 05:28:45;;;;;;;13.70;11.23;;;19.20;74.30;;;;;;5067115;28;20021;-70
2022/06/08 05:31:11;;;;;;;10.85;9.75;;;19.00;74.80;;;;;;5059771;28;20094;-70
2022/06/08 05:33:37;;;;;;;11.25;9.35;;;19.00;75.00;;;;;;5056180;28;20054;-69
2022/06/08 05:36:03;;;;;;;13.02;11.73;;;18.70;75.60;;;;;;5047305;28;20048;-69
2022/06/08 05:38:29;;;;;;;13.18;11.40;;;18.60;76.30;;;;;;5053894;28;20033;-69
2022/06/08 05:40:55;;;;;;;13.52;10.65;;;18.50;76.80;;;;;;5051211;28;20025;-69
2022/06/08 05:43:20;;;;;;;9.38;8.20;;;18.50;76.90;;;;;;5053151;28;20036;-68
2022/06/08 05:45:46;;;;;;;13.48;12.07;;;18.60;76.80;;;;;;5047264;28;20031;-69
2022/06/08 05:48:13;;;;;;;12.48;11.18;;;18.40;77.20;;;;;;5053041;28;20099;-68
2022/06/08 05:50:40;;;;;;;10.27;8.98;;;18.30;77.70;;;;;;5053515;28;20029;-68
2022/06/08 05:53:06;;;;;;;10.52;9.02;;;18.30;77.80;;;;;;5052052;28;20020;-68
2022/06/08 05:55:32;;;;;;;9.45;8.10;;;18.30;77.80;;;;;;5050176;28;20056;-68
2022/06/08 05:57:58;;;;;;;10.88;9.63;;;18.30;77.80;;;;;;5051219;28;20052;-68
2022/06/08 06:00:27;;;;;;;10.57;8.63;;;18.30;78.00;;;;;;5048889;28;20082;-68
2022/06/08 06:02:54;;;;;;;10.70;9.60;;;18.20;77.90;;;;;;5054472;28;20037;-69
2022/06/08 06:05:23;;;;;;;11.77;10.25;;;18.20;78.10;;;;;;5051267;28;20021;-69
2022/06/08 06:07:49;;;;;;;13.55;11.63;;;18.20;78.30;;;;;;5055670;28;20036;-68
2022/06/08 06:10:15;;;;;;;9.20;7.22;;;18.20;78.60;;;;;;5060164;28;20036;-68
2022/06/08 06:12:41;;;;;;;10.88;8.27;;;18.40;78.40;;;;;;5050341;28;20044;-68
2022/06/08 06:15:07;;;;;;;9.38;8.23;;;18.60;78.00;;;;;;5046464;28;20522;-69
2022/06/08 06:17:34;;;;;;;9.10;8.10;;;18.80;77.50;;;;;;5054158;28;20052;-69
2022/06/08 06:19:59;;;;;;;8.48;7.55;;;18.90;77.00;;;;;;5059307;28;20028;-68
2022/06/08 06:22:26;;;;;;;11.13;9.23;;;19.00;76.50;;;;;;5051909;28;20104;-68
2022/06/08 06:24:52;;;;;;;12.10;10.07;;;18.90;76.40;;;;;;5050308;28;20028;-68
2022/06/08 06:27:17;;;;;;;10.93;9.60;;;18.80;76.70;;;;;;5051974;28;20025;-67
2022/06/08 06:29:43;;;;;;;9.32;8.32;;;18.70;77.10;;;;;;5055535;28;20367;-68
2022/06/08 06:32:17;;;;;;;9.15;8.15;;;18.70;77.20;;;;;;5059425;28;20155;-68
2022/06/08 06:34:43;;;;;;;10.10;8.80;;;18.80;77.30;;;;;;5049637;28;20100;-68
2022/06/08 06:37:09;;;;;;;8.30;7.15;;;18.80;77.30;;;;;;5054219;28;20489;-68
2022/06/08 06:39:34;;;;;;;9.45;8.38;;;18.80;77.40;;;;;;5050505;28;20029;-68
2022/06/08 06:42:00;;;;;;;9.35;6.90;;;18.90;77.30;;;;;;5051821;28;20049;-69
2022/06/08 06:44:26;;;;;;;8.55;7.40;;;19.00;77.00;;;;;;5051145;28;20024;-69
2022/06/08 06:46:51;;;;;;;8.35;7.20;;;19.10;76.80;;;;;;5050719;28;20040;-69
2022/06/08 06:49:20;;;;;;;7.50;5.50;;;19.20;76.50;;;;;;5053719;28;20025;-68
2022/06/08 06:51:46;;;;;;;7.45;5.53;;;19.20;76.20;;;;;;5049234;28;20391;-68
2022/06/08 06:54:12;;;;;;;7.72;6.25;;;19.20;76.10;;;;;;5049331;28;20025;-68
2022/06/08 06:56:38;;;;;;;8.43;6.30;;;19.20;75.90;;;;;;5049068;28;20029;-68
2022/06/08 06:59:04;;;;;;;6.75;4.70;;;19.10;75.70;;;;;;5047876;28;20029;-68
2022/06/08 07:01:30;;;;;;;7.43;5.75;;;19.20;75.80;;;;;;5048583;28;20025;-68
2022/06/08 07:03:57;;;;;;;6.13;4.88;;;19.20;75.70;;;;;;5048178;28;20740;-69
2022/06/08 07:06:22;;;;;;;4.40;3.88;;;19.20;75.60;;;;;;5050112;28;20430;-69
2022/06/08 07:08:48;;;;;;;6.75;6.05;;;19.40;75.40;;;;;;5051941;28;20017;-69
2022/06/08 07:11:32;;;;;;;7.55;5.32;;;19.40;74.60;;;;;;5050772;28;20066;-69
2022/06/08 07:13:59;;;;;;;7.00;5.53;;;19.50;74.50;;;;;;5048245;28;20079;-69
2022/06/08 07:16:25;;;;;;;9.40;5.93;;;19.50;74.40;;;;;;5044520;28;20180;-69
2022/06/08 07:18:51;;;;;;;6.15;5.55;;;19.50;74.40;;;;;;5048468;28;20036;-69
2022/06/08 07:21:16;;;;;;;6.25;5.30;;;19.50;74.40;;;;;;5056320;28;20025;-69
2022/06/08 07:23:42;;;;;;;7.07;5.15;;;19.50;74.10;;;;;;5049258;28;20060;-69
2022/06/08 07:26:08;;;;;;;7.25;5.15;;;19.50;74.10;;;;;;5048906;28;20808;-69
2022/06/08 07:28:34;;;;;;;6.43;4.50;;;19.40;74.10;;;;;;5048919;28;20035;-68
2022/06/08 07:31:00;;;;;;;5.28;4.00;;;19.40;74.50;;;;;;5049697;28;20540;-68
2022/06/08 07:33:26;;;;;;;6.57;5.18;;;19.40;74.30;;;;;;5056619;28;20025;-68
2022/06/08 07:35:52;;;;;;;5.68;4.35;;;19.50;74.10;;;;;;5048924;28;20056;-68
2022/06/08 07:38:18;;;;;;;6.15;4.68;;;19.50;73.90;;;;;;5049227;28;20071;-68
2022/06/08 07:40:44;;;;;;;6.28;4.70;;;19.50;74.00;;;;;;5044543;28;20028;-68
2022/06/08 07:43:10;;;;;;;4.32;2.85;;;19.50;74.10;;;;;;5046872;28;20056;-68
2022/06/08 07:45:35;;;;;;;5.28;4.00;;;19.60;74.00;;;;;;5048379;28;20032;-68
2022/06/08 07:50:45;;;;;;;3.20;2.90;;;19.80;73.40;;;;;;5052011;28;20036;-67
2022/06/08 07:53:11;;;;;;;5.78;4.10;;;20.00;72.90;;;;;;5048464;28;20044;-69
2022/06/08 07:55:37;;;;;;;5.13;4.00;;;20.00;72.50;;;;;;5048495;28;20100;-68
2022/06/08 07:58:03;;;;;;;3.33;2.63;;;19.90;72.50;;;;;;5037540;28;20532;-69
2022/06/08 08:00:30;;;;;;;3.80;3.00;;;20.00;72.70;;;;;;5039918;28;20025;-69
2022/06/08 08:02:56;;;;;;;3.72;2.95;;;20.10;72.50;;;;;;5041389;28;20056;-69
2022/06/08 08:05:22;;;;;;;4.63;3.50;;;20.20;72.20;;;;;;5047974;28;21561;-69
2022/06/08 08:07:48;;;;;;;5.60;3.78;;;20.10;71.90;;;;;;5046019;28;20023;-69
2022/06/08 08:10:18;;;;;;;4.72;4.03;;;20.10;71.90;;;;;;5047884;28;20017;-69
2022/06/08 08:12:44;;;;;;;4.57;3.33;;;20.20;72.00;;;;;;5048062;28;20040;-69
2022/06/08 08:15:10;;;;;;;5.00;3.60;;;20.40;71.80;;;;;;5047454;28;20483;-69
2022/06/08 08:17:36;;;;;;;5.80;3.50;;;20.50;71.00;;;;;;5047675;28;20047;-69
2022/06/08 08:20:04;;;;;;;3.90;3.40;;;20.60;70.40;;;;;;5041207;28;20025;-69
2022/06/08 08:22:30;;;;;;;5.75;3.60;;;20.80;70.30;;;;;;5047715;28;20028;-69
2022/06/08 08:24:56;;;;;;;4.00;3.13;;;20.90;69.90;;;;;;5047620;28;20021;-69
2022/06/08 08:27:21;;;;;;;6.20;3.75;;;21.10;69.80;;;;;;5046486;28;20025;-69
2022/06/08 08:29:47;;;;;;;3.70;3.03;;;21.10;69.10;;;;;;5048562;28;20070;-69
2022/06/08 08:32:12;;;;;;;5.50;4.00;;;21.20;69.20;;;;;;5047425;28;20095;-69
2022/06/08 08:34:38;;;;;;;4.97;3.10;;;21.40;68.40;;;;;;5048742;28;20028;-69
2022/06/08 08:37:04;;;;;;;5.40;3.80;;;21.50;68.20;;;;;;5047135;28;20037;-69
2022/06/08 08:39:32;;;;;;;8.07;3.60;;;21.60;67.50;;;;;;5048191;28;20020;-69
2022/06/08 08:44:51;;;;;;;3.72;3.10;;;22.00;66.80;;;;;;5051431;28;20032;-68
2022/06/08 08:47:26;;;;;;;3.20;2.63;;;22.20;66.40;;;;;;5053380;28;20048;-68
2022/06/08 08:50:35;;;;;;;3.38;2.53;;;22.30;66.10;;;;;;5051229;28;20403;-69
2022/06/08 08:53:10;;;;;;;3.90;2.30;;;22.30;65.30;;;;;;5054016;28;20310;-67
2022/06/08 08:56:03;;;;;;;3.67;2.28;;;22.30;65.00;;;;;;5049239;28;20195;-68
2022/06/08 08:58:33;;;;;;;4.40;1.98;;;22.30;64.40;;;;;;5048867;28;20099;-68
2022/06/08 09:01:02;;;;;;;2.97;2.20;;;22.40;64.40;;;;;;5049209;28;20025;-68
2022/06/08 09:03:30;;;;;;;3.25;2.22;;;22.40;63.60;;;;;;5049231;28;20021;-69
2022/06/08 09:06:11;;;;;;;3.20;1.80;;;22.40;63.90;;;;;;5051958;28;20057;-69
2022/06/08 09:08:39;;;;;;;3.08;2.13;;;22.50;64.00;;;;;;5052035;28;20063;-69
2022/06/08 09:11:18;;;;;;;3.80;3.00;;;22.40;63.50;;;;;;5050894;28;20017;-69
2022/06/08 09:13:49;;;;;;;3.97;2.00;;;22.30;63.30;;;;;;5049405;28;20021;-69
2022/06/08 09:16:25;;;;;;;3.33;1.63;;;22.30;63.80;;;;;;5063754;28;20021;-69
2022/06/08 09:18:51;;;;;;;3.08;1.85;;;22.50;64.00;;;;;;5053727;28;20033;-69
2022/06/08 09:21:25;;;;;;;3.20;2.15;;;22.60;63.90;;;;;;5055668;28;20040;-69
2022/06/08 09:23:53;;;;;;;4.28;2.42;;;22.60;63.70;;;;;;5050553;28;20306;-69
2022/06/08 09:26:25;;;;;;;3.88;2.15;;;22.50;63.30;;;;;;5053914;28;20103;-69
2022/06/08 09:29:08;;;;;;;8.25;2.90;;;22.50;63.40;;;;;;5050062;28;20501;-69
2022/06/08 09:31:36;;;;;;;3.95;2.70;;;22.50;63.30;;;;;;5050537;28;20028;-69
2022/06/08 09:34:19;;;;;;;6.15;3.22;;;22.40;63.30;;;;;;5050177;28;20032;-70
2022/06/08 09:36:45;;;;;;;3.97;2.40;;;22.20;63.20;;;;;;5054520;28;20032;-70
2022/06/08 09:39:16;;;;;;;5.88;3.20;;;22.10;63.70;;;;;;5051927;28;20028;-70
2022/06/08 09:41:50;;;;;;;5.05;3.03;;;22.10;63.80;;;;;;5067761;28;20044;-70
2022/06/08 09:44:22;;;;;;;5.60;2.72;;;21.90;64.10;;;;;;5047721;28;20116;-70
2022/06/08 09:52:52;;;;;;;4.38;2.72;;;21.70;65.10;;;;;;5051547;28;20090;-69
2022/06/08 09:55:53;;;;;;;3.88;2.50;;;21.70;65.00;;;;;;5051834;28;20033;-69
2022/06/08 09:58:31;;;;;;;3.35;2.13;;;21.70;65.00;;;;;;5043899;28;20029;-69
2022/06/08 10:01:25;;;;;;;3.67;2.20;;;21.70;64.90;;;;;;5057757;28;20029;-68
2022/06/08 10:04:27;;;;;;;4.45;2.30;;;21.80;64.80;;;;;;5044302;28;20051;-69
2022/06/08 10:07:22;;;;;;;3.65;2.40;;;21.70;64.50;;;;;;5040761;28;20025;-69
2022/06/08 10:09:51;;;;;;;5.13;2.10;;;21.70;64.30;;;;;;5047349;28;20021;-69
2022/06/08 10:12:34;;;;;;;3.33;1.80;;;21.70;64.50;;;;;;5046322;28;20028;-69
2022/06/08 10:15:08;;;;;;;5.38;3.15;;;21.70;64.60;;;;;;5046002;28;20113;-69
2022/06/08 10:17:46;;;;;;;4.07;2.25;;;21.70;64.30;;;;;;5046579;28;20537;-69
2022/06/08 10:20:26;;;;;;;4.05;2.10;;;21.60;64.60;;;;;;5049169;28;20028;-69
2022/06/08 10:22:59;;;;;;;4.35;2.05;;;21.70;64.60;;;;;;5047727;28;20033;-69
2022/06/08 10:25:41;;;;;;;5.78;2.47;;;21.70;64.60;;;;;;5049297;28;20085;-69
2022/06/08 10:28:41;;;;;;;3.73;2.10;;;21.70;64.60;;;;;;5048979;28;20528;-69
2022/06/08 10:31:18;;;;;;;6.28;2.53;;;21.60;64.70;;;;;;5046086;28;20468;-69
2022/06/08 10:33:52;;;;;;;4.65;2.45;;;21.60;64.90;;;;;;5049329;28;20029;-69
2022/06/08 10:36:19;;;;;;;2.53;1.67;;;21.60;65.10;;;;;;5050863;28;20108;-68
2022/06/08 10:38:45;;;;;;;6.15;2.20;;;21.50;65.40;;;;;;5050439;28;20063;-69
2022/06/08 10:44:03;;;;;;;6.43;2.47;;;21.50;64.80;;;;;;5046181;28;20067;-69
2022/06/08 10:46:45;;;;;;;4.47;1.50;;;21.50;64.80;;;;;;5049856;28;20013;-69
2022/06/08 10:49:30;;;;;;;4.73;2.20;;;21.60;65.00;;;;;;5048526;28;20020;-69
2022/06/08 10:52:18;;;;;;;4.47;1.80;;;21.60;65.10;;;;;;5045112;28;20275;-69
2022/06/08 10:54:58;;;;;;;5.90;3.03;;;21.70;64.70;;;;;;5048620;28;20379;-69
2022/06/08 10:58:01;;;;;;;4.80;1.90;;;21.60;64.50;;;;;;5047690;28;20572;-69
2022/06/08 11:00:51;;;;;;;3.60;1.90;;;21.60;64.50;;;;;;5044888;28;20048;-68
2022/06/08 11:03:31;;;;;;;3.42;1.20;;;21.50;64.50;;;;;;5048067;28;20032;-69
2022/06/08 11:05:57;;;;;;;4.90;1.92;;;21.40;64.70;;;;;;5047216;28;20062;-69
2022/06/08 11:08:24;;;;;;;4.85;1.90;;;21.10;65.10;;;;;;5045960;28;20029;-70
2022/06/08 11:10:57;;;;;;;4.45;1.80;;;20.90;65.80;;;;;;5050200;28;20017;-70
2022/06/08 11:13:24;;;;;;;3.08;1.40;;;20.80;66.70;;;;;;5049836;28;20087;-70
2022/06/08 11:15:52;;;;;;;6.25;1.85;;;20.70;67.00;;;;;;5049300;28;20021;-71
2022/06/08 11:18:41;;;;;;;3.30;1.50;;;20.60;67.40;;;;;;5049410;28;20025;-70
2022/06/08 11:21:21;;;;;;;2.53;1.60;;;20.50;68.10;;;;;;5049978;28;20048;-70
2022/06/08 11:23:55;;;;;;;2.90;1.42;;;20.40;68.50;;;;;;5064313;28;20383;-70
2022/06/08 11:26:23;;;;;;;3.80;1.70;;;20.40;68.90;;;;;;5049708;28;20107;-70
2022/06/08 11:28:56;;;;;;;4.53;1.80;;;20.40;69.30;;;;;;5050216;28;20017;-68
2022/06/08 11:31:27;;;;;;;5.55;1.65;;;20.30;69.50;;;;;;5049306;28;20036;-68
2022/06/08 11:34:21;;;;;;;3.15;1.42;;;20.40;69.60;;;;;;5048488;28;20082;-68
2022/06/08 11:37:05;;;;;;;5.18;1.90;;;20.40;69.50;;;;;;5048359;28;20029;-69
2022/06/08 11:39:45;;;;;;;3.33;1.58;;;20.40;70.10;;;;;;5051855;28;20028;-70
2022/06/08 11:42:14;;;;;;;3.42;1.90;;;20.40;69.60;;;;;;5047708;28;20021;-69
2022/06/08 11:44:48;;;;;;;3.65;1.60;;;20.40;69.70;;;;;;5048158;28;20751;-69
2022/06/08 11:47:19;;;;;;;4.03;1.70;;;20.40;69.60;;;;;;5049195;28;20025;-70
2022/06/08 11:49:55;;;;;;;4.63;1.95;;;20.40;69.70;;;;;;5047535;28;20029;-69
2022/06/08 11:52:31;;;;;;;4.05;1.60;;;20.40;69.60;;;;;;5048957;28;20519;-70
2022/06/08 11:55:03;;;;;;;2.63;1.40;;;20.40;69.60;;;;;;5052234;28;20093;-70
2022/06/08 11:57:30;;;;;;;3.85;1.65;;;20.40;69.50;;;;;;5044890;28;20060;-69
2022/06/08 11:59:58;;;;;;;2.75;1.60;;;20.40;69.60;;;;;;5048113;28;20017;-69
2022/06/08 12:02:35;;;;;;;4.38;1.88;;;20.30;69.60;;;;;;5046199;28;20136;-70
2022/06/08 12:05:01;;;;;;;4.50;2.10;;;20.20;69.70;;;;;;5046488;28;20070;-70
2022/06/08 12:07:50;;;;;;;3.53;1.70;;;20.10;70.00;;;;;;5046521;28;20560;-70
2022/06/08 12:10:24;;;;;;;3.17;1.42;;;19.90;70.20;;;;;;5046470;28;20021;-70
2022/06/08 12:12:53;;;;;;;2.75;1.50;;;19.80;70.20;;;;;;5045698;28;20030;-69
2022/06/08 12:15:30;;;;;;;4.07;1.58;;;19.70;70.30;;;;;;5048331;28;20032;-69
2022/06/08 12:18:06;;;;;;;3.30;1.30;;;19.60;70.60;;;;;;5049087;28;20475;-69
2022/06/08 12:20:36;;;;;;;4.95;1.90;;;19.50;71.00;;;;;;5047358;28;20029;-70
2022/06/08 12:23:02;;;;;;;4.00;1.33;;;19.40;71.30;;;;;;5045846;28;20115;-70
2022/06/08 12:25:29;;;;;;;2.38;1.30;;;19.30;71.70;;;;;;5046207;28;20032;-70
2022/06/08 12:27:58;;;;;;;3.33;1.30;;;19.30;72.20;;;;;;5050667;28;20083;-71
2022/06/08 12:30:36;;;;;;;3.53;1.65;;;19.30;72.40;;;;;;5049021;28;20025;-72
2022/06/08 12:33:02;;;;;;;3.90;1.60;;;19.20;72.40;;;;;;5048677;28;20211;-74
2022/06/08 12:35:38;;;;;;;2.50;1.40;;;19.00;73.10;;;;;;5048698;28;20029;-70
2022/06/08 12:38:23;;;;;;;4.82;1.20;;;19.00;73.30;;;;;;5047124;28;20072;-70
2022/06/08 12:41:08;;;;;;;3.70;1.40;;;19.00;73.30;;;;;;5054442;28;20032;-71
2022/06/08 12:43:47;;;;;;;5.07;1.30;;;19.00;73.50;;;;;;5048447;28;20044;-70
2022/06/08 12:46:13;;;;;;;4.18;1.90;;;19.10;73.60;;;;;;5047004;28;20043;-71
2022/06/08 12:48:42;;;;;;;3.10;1.50;;;19.10;73.60;;;;;;5050649;28;20024;-71
2022/06/08 12:51:37;;;;;;;2.78;1.55;;;19.00;73.90;;;;;;5068596;28;20021;-71
2022/06/08 12:54:18;;;;;;;4.32;1.80;;;19.10;73.90;;;;;;5047715;28;20075;-70
2022/06/08 12:56:47;;;;;;;5.35;2.20;;;19.10;74.10;;;;;;5049988;28;20112;-70
2022/06/08 12:59:13;;;;;;;4.55;1.80;;;19.00;74.40;;;;;;5049815;28;20035;-68
2022/06/08 13:01:41;;;;;;;4.28;1.60;;;18.90;74.90;;;;;;5048226;28;20074;-69
2022/06/08 13:04:06;;;;;;;5.25;2.15;;;18.80;75.20;;;;;;5044504;28;20087;-69
2022/06/08 13:06:32;;;;;;;5.28;2.40;;;18.80;75.50;;;;;;5043482;28;20487;-69
2022/06/08 13:08:58;;;;;;;2.92;1.52;;;18.70;75.80;;;;;;5046433;28;20025;-69
2022/06/08 13:11:25;;;;;;;4.15;1.85;;;18.80;75.80;;;;;;5046607;28;20064;-69
2022/06/08 13:13:54;;;;;;;4.40;1.90;;;18.80;76.00;;;;;;5046545;28;20029;-68
2022/06/08 13:16:27;;;;;;;5.05;2.00;;;18.70;76.50;;;;;;5044460;28;20087;-69
2022/06/08 13:18:54;;;;;;;4.95;1.90;;;18.60;77.10;;;;;;5043440;28;20041;-70
2022/06/08 13:21:21;;;;;;;3.70;1.60;;;18.50;77.20;;;;;;5046463;28;20117;-69